sensor_id;sensor_type;location;lat;lon;timestamp;P1;durP1;ratioP1;P2;durP2;ratioP2
74223;SDS011;62585;49.706;18.216;2024-02-16T00:01:20;12.00;;;8.70;;
74223;SDS011;62585;49.706;18.216;2024-02-16T00:03:46;18.75;;;8.65;;
74223;SDS011;62585;49.706;18.216;2024-02-16T00:06:12;11.85;;;7.65;;
74223;SDS011;62585;49.706;18.216;2024-02-16T00:08:37;12.75;;;7.45;;
74223;SDS011;62585;49.706;18.216;2024-02-16T00:11:07;11.18;;;7.03;;
74223;SDS011;62585;49.706;18.216;2024-02-16T00:13:34;9.93;;;5.65;;
74223;SDS011;62585;49.706;18.216;2024-02-16T00:16:00;11.07;;;5.40;;
74223;SDS011;62585;49.706;18.216;2024-02-16T00:18:25;11.10;;;5.97;;
74223;SDS011;62585;49.706;18.216;2024-02-16T00:20:51;11.25;;;5.85;;
74223;SDS011;62585;49.706;18.216;2024-02-16T00:23:17;9.73;;;6.13;;
74223;SDS011;62585;49.706;18.216;2024-02-16T00:25:48;7.47;;;4.85;;
74223;SDS011;62585;49.706;18.216;2024-02-16T00:28:16;11.10;;;5.95;;
74223;SDS011;62585;49.706;18.216;2024-02-16T00:30:42;10.23;;;5.90;;
74223;SDS011;62585;49.706;18.216;2024-02-16T00:33:08;11.35;;;6.55;;
74223;SDS011;62585;49.706;18.216;2024-02-16T00:35:34;10.77;;;6.22;;
74223;SDS011;62585;49.706;18.216;2024-02-16T00:38:00;11.68;;;7.00;;
74223;SDS011;62585;49.706;18.216;2024-02-16T00:40:26;11.00;;;6.75;;
74223;SDS011;62585;49.706;18.216;2024-02-16T00:42:52;12.90;;;6.57;;
74223;SDS011;62585;49.706;18.216;2024-02-16T00:45:18;14.80;;;6.95;;
74223;SDS011;62585;49.706;18.216;2024-02-16T00:47:44;11.05;;;6.10;;
74223;SDS011;62585;49.706;18.216;2024-02-16T00:52:37;10.55;;;5.75;;
74223;SDS011;62585;49.706;18.216;2024-02-16T00:57:30;10.40;;;5.30;;
74223;SDS011;62585;49.706;18.216;2024-02-16T00:59:56;9.65;;;5.53;;
74223;SDS011;62585;49.706;18.216;2024-02-16T01:02:22;10.25;;;6.03;;
74223;SDS011;62585;49.706;18.216;2024-02-16T01:04:48;11.02;;;6.45;;
74223;SDS011;62585;49.706;18.216;2024-02-16T01:09:41;13.02;;;7.45;;
74223;SDS011;62585;49.706;18.216;2024-02-16T01:12:07;12.90;;;7.40;;
74223;SDS011;62585;49.706;18.216;2024-02-16T01:14:33;14.45;;;8.25;;
74223;SDS011;62585;49.706;18.216;2024-02-16T01:16:59;12.90;;;7.22;;
74223;SDS011;62585;49.706;18.216;2024-02-16T01:19:25;13.25;;;8.73;;
74223;SDS011;62585;49.706;18.216;2024-02-16T01:21:51;12.63;;;7.13;;
74223;SDS011;62585;49.706;18.216;2024-02-16T01:24:19;15.02;;;7.63;;
74223;SDS011;62585;49.706;18.216;2024-02-16T01:26:46;12.43;;;6.60;;
74223;SDS011;62585;49.706;18.216;2024-02-16T01:29:12;9.70;;;5.90;;
74223;SDS011;62585;49.706;18.216;2024-02-16T01:31:38;14.40;;;6.90;;
74223;SDS011;62585;49.706;18.216;2024-02-16T01:34:04;11.77;;;6.50;;
74223;SDS011;62585;49.706;18.216;2024-02-16T01:36:29;11.18;;;5.88;;
74223;SDS011;62585;49.706;18.216;2024-02-16T01:38:55;9.05;;;5.07;;
74223;SDS011;62585;49.706;18.216;2024-02-16T01:41:21;11.70;;;5.95;;
74223;SDS011;62585;49.706;18.216;2024-02-16T01:43:47;12.07;;;6.35;;
74223;SDS011;62585;49.706;18.216;2024-02-16T01:46:13;13.55;;;7.18;;
74223;SDS011;62585;49.706;18.216;2024-02-16T01:48:39;12.07;;;6.35;;
74223;SDS011;62585;49.706;18.216;2024-02-16T01:51:06;11.80;;;6.47;;
74223;SDS011;62585;49.706;18.216;2024-02-16T01:53:34;13.13;;;7.70;;
74223;SDS011;62585;49.706;18.216;2024-02-16T01:56:02;16.42;;;8.10;;
74223;SDS011;62585;49.706;18.216;2024-02-16T01:58:28;11.85;;;6.72;;
74223;SDS011;62585;49.706;18.216;2024-02-16T02:00:54;12.20;;;7.60;;
74223;SDS011;62585;49.706;18.216;2024-02-16T02:03:20;15.27;;;6.95;;
74223;SDS011;62585;49.706;18.216;2024-02-16T02:05:46;11.02;;;6.57;;
74223;SDS011;62585;49.706;18.216;2024-02-16T02:08:12;11.38;;;6.20;;
74223;SDS011;62585;49.706;18.216;2024-02-16T02:13:14;11.60;;;6.65;;
74223;SDS011;62585;49.706;18.216;2024-02-16T02:15:40;11.57;;;6.85;;
74223;SDS011;62585;49.706;18.216;2024-02-16T02:18:06;10.30;;;6.68;;
74223;SDS011;62585;49.706;18.216;2024-02-16T02:20:32;13.93;;;7.97;;
74223;SDS011;62585;49.706;18.216;2024-02-16T02:22:59;12.40;;;6.38;;
74223;SDS011;62585;49.706;18.216;2024-02-16T02:25:25;10.38;;;6.35;;
74223;SDS011;62585;49.706;18.216;2024-02-16T02:27:54;11.00;;;6.60;;
74223;SDS011;62585;49.706;18.216;2024-02-16T02:30:20;11.77;;;6.07;;
74223;SDS011;62585;49.706;18.216;2024-02-16T02:32:46;13.13;;;6.40;;
74223;SDS011;62585;49.706;18.216;2024-02-16T02:37:40;9.85;;;5.00;;
74223;SDS011;62585;49.706;18.216;2024-02-16T02:40:07;9.65;;;5.97;;
74223;SDS011;62585;49.706;18.216;2024-02-16T02:42:34;9.85;;;5.53;;
74223;SDS011;62585;49.706;18.216;2024-02-16T02:45:01;12.00;;;6.00;;
74223;SDS011;62585;49.706;18.216;2024-02-16T02:47:27;7.85;;;5.53;;
74223;SDS011;62585;49.706;18.216;2024-02-16T02:49:53;11.07;;;6.90;;
74223;SDS011;62585;49.706;18.216;2024-02-16T02:52:19;12.45;;;6.47;;
74223;SDS011;62585;49.706;18.216;2024-02-16T02:54:46;13.15;;;6.22;;
74223;SDS011;62585;49.706;18.216;2024-02-16T02:57:12;11.93;;;6.30;;
74223;SDS011;62585;49.706;18.216;2024-02-16T02:59:38;13.98;;;6.65;;
74223;SDS011;62585;49.706;18.216;2024-02-16T03:02:04;11.70;;;6.80;;
74223;SDS011;62585;49.706;18.216;2024-02-16T03:04:30;12.80;;;6.13;;
74223;SDS011;62585;49.706;18.216;2024-02-16T03:06:55;10.00;;;6.00;;
74223;SDS011;62585;49.706;18.216;2024-02-16T03:09:21;12.27;;;6.60;;
74223;SDS011;62585;49.706;18.216;2024-02-16T03:11:48;10.90;;;5.93;;
74223;SDS011;62585;49.706;18.216;2024-02-16T03:14:18;12.02;;;6.70;;
74223;SDS011;62585;49.706;18.216;2024-02-16T03:16:44;12.05;;;5.25;;
74223;SDS011;62585;49.706;18.216;2024-02-16T03:19:09;13.20;;;6.20;;
74223;SDS011;62585;49.706;18.216;2024-02-16T03:21:35;10.93;;;6.78;;
74223;SDS011;62585;49.706;18.216;2024-02-16T03:24:02;12.18;;;6.40;;
74223;SDS011;62585;49.706;18.216;2024-02-16T03:26:29;10.40;;;6.45;;
74223;SDS011;62585;49.706;18.216;2024-02-16T03:28:55;12.15;;;6.18;;
74223;SDS011;62585;49.706;18.216;2024-02-16T03:31:22;9.98;;;6.03;;
74223;SDS011;62585;49.706;18.216;2024-02-16T03:33:49;10.88;;;6.88;;
74223;SDS011;62585;49.706;18.216;2024-02-16T03:36:19;12.95;;;7.55;;
74223;SDS011;62585;49.706;18.216;2024-02-16T03:38:46;12.13;;;6.88;;
74223;SDS011;62585;49.706;18.216;2024-02-16T03:41:19;14.85;;;6.45;;
74223;SDS011;62585;49.706;18.216;2024-02-16T03:43:46;12.68;;;7.47;;
74223;SDS011;62585;49.706;18.216;2024-02-16T03:46:12;11.40;;;5.85;;
74223;SDS011;62585;49.706;18.216;2024-02-16T03:48:39;15.88;;;6.63;;
74223;SDS011;62585;49.706;18.216;2024-02-16T03:51:07;11.73;;;6.07;;
74223;SDS011;62585;49.706;18.216;2024-02-16T03:53:33;9.73;;;5.43;;
74223;SDS011;62585;49.706;18.216;2024-02-16T03:55:59;10.88;;;7.22;;
74223;SDS011;62585;49.706;18.216;2024-02-16T03:58:25;11.32;;;6.78;;
74223;SDS011;62585;49.706;18.216;2024-02-16T04:00:51;10.65;;;6.70;;
74223;SDS011;62585;49.706;18.216;2024-02-16T04:03:20;9.88;;;6.20;;
74223;SDS011;62585;49.706;18.216;2024-02-16T04:05:46;9.45;;;4.70;;
74223;SDS011;62585;49.706;18.216;2024-02-16T04:08:12;9.40;;;5.13;;
74223;SDS011;62585;49.706;18.216;2024-02-16T04:10:38;9.55;;;4.53;;
74223;SDS011;62585;49.706;18.216;2024-02-16T04:13:06;8.57;;;5.20;;
74223;SDS011;62585;49.706;18.216;2024-02-16T04:15:31;9.60;;;5.18;;
74223;SDS011;62585;49.706;18.216;2024-02-16T04:17:58;9.93;;;4.50;;
74223;SDS011;62585;49.706;18.216;2024-02-16T04:20:23;8.07;;;4.35;;
74223;SDS011;62585;49.706;18.216;2024-02-16T04:22:49;10.70;;;4.35;;
74223;SDS011;62585;49.706;18.216;2024-02-16T04:25:15;8.73;;;4.65;;
74223;SDS011;62585;49.706;18.216;2024-02-16T04:27:41;7.03;;;4.20;;
74223;SDS011;62585;49.706;18.216;2024-02-16T04:30:07;6.70;;;4.22;;
74223;SDS011;62585;49.706;18.216;2024-02-16T04:32:33;7.60;;;4.15;;
74223;SDS011;62585;49.706;18.216;2024-02-16T04:34:59;6.40;;;4.22;;
74223;SDS011;62585;49.706;18.216;2024-02-16T04:37:25;8.60;;;4.05;;
74223;SDS011;62585;49.706;18.216;2024-02-16T04:39:51;6.15;;;3.53;;
74223;SDS011;62585;49.706;18.216;2024-02-16T04:42:17;7.57;;;4.20;;
74223;SDS011;62585;49.706;18.216;2024-02-16T04:44:43;7.78;;;4.45;;
74223;SDS011;62585;49.706;18.216;2024-02-16T04:47:09;6.25;;;3.80;;
74223;SDS011;62585;49.706;18.216;2024-02-16T04:49:35;8.93;;;4.22;;
74223;SDS011;62585;49.706;18.216;2024-02-16T04:52:02;7.65;;;3.78;;
74223;SDS011;62585;49.706;18.216;2024-02-16T04:54:29;8.88;;;4.40;;
74223;SDS011;62585;49.706;18.216;2024-02-16T04:56:55;7.28;;;3.90;;
74223;SDS011;62585;49.706;18.216;2024-02-16T04:59:21;6.43;;;3.83;;
74223;SDS011;62585;49.706;18.216;2024-02-16T05:01:47;7.03;;;3.70;;
74223;SDS011;62585;49.706;18.216;2024-02-16T05:04:13;7.88;;;3.63;;
74223;SDS011;62585;49.706;18.216;2024-02-16T05:06:42;6.97;;;4.07;;
74223;SDS011;62585;49.706;18.216;2024-02-16T05:09:10;7.70;;;4.60;;
74223;SDS011;62585;49.706;18.216;2024-02-16T05:11:36;11.27;;;4.22;;
74223;SDS011;62585;49.706;18.216;2024-02-16T05:14:02;7.35;;;3.95;;
74223;SDS011;62585;49.706;18.216;2024-02-16T05:16:28;11.80;;;4.03;;
74223;SDS011;62585;49.706;18.216;2024-02-16T05:18:57;8.00;;;4.10;;
74223;SDS011;62585;49.706;18.216;2024-02-16T05:21:23;7.63;;;3.63;;
74223;SDS011;62585;49.706;18.216;2024-02-16T05:23:49;8.30;;;4.40;;
74223;SDS011;62585;49.706;18.216;2024-02-16T05:26:15;6.55;;;4.05;;
74223;SDS011;62585;49.706;18.216;2024-02-16T05:28:41;8.68;;;4.22;;
74223;SDS011;62585;49.706;18.216;2024-02-16T05:31:14;6.93;;;4.05;;
74223;SDS011;62585;49.706;18.216;2024-02-16T05:33:45;6.70;;;3.92;;
74223;SDS011;62585;49.706;18.216;2024-02-16T05:36:16;7.95;;;4.22;;
74223;SDS011;62585;49.706;18.216;2024-02-16T05:38:52;8.15;;;4.18;;
74223;SDS011;62585;49.706;18.216;2024-02-16T05:41:21;7.47;;;3.60;;
74223;SDS011;62585;49.706;18.216;2024-02-16T05:43:47;8.93;;;4.57;;
74223;SDS011;62585;49.706;18.216;2024-02-16T05:46:17;9.32;;;5.45;;
74223;SDS011;62585;49.706;18.216;2024-02-16T05:48:43;14.50;;;4.95;;
74223;SDS011;62585;49.706;18.216;2024-02-16T05:51:10;9.10;;;5.57;;
74223;SDS011;62585;49.706;18.216;2024-02-16T05:53:38;10.35;;;5.13;;
74223;SDS011;62585;49.706;18.216;2024-02-16T05:56:05;7.97;;;4.93;;
74223;SDS011;62585;49.706;18.216;2024-02-16T05:58:32;9.10;;;5.03;;
74223;SDS011;62585;49.706;18.216;2024-02-16T06:00:59;9.30;;;5.88;;
74223;SDS011;62585;49.706;18.216;2024-02-16T06:03:24;7.47;;;4.57;;
74223;SDS011;62585;49.706;18.216;2024-02-16T06:05:54;9.50;;;5.25;;
74223;SDS011;62585;49.706;18.216;2024-02-16T06:08:20;9.77;;;5.43;;
74223;SDS011;62585;49.706;18.216;2024-02-16T06:10:46;9.20;;;5.30;;
74223;SDS011;62585;49.706;18.216;2024-02-16T06:13:19;8.85;;;5.53;;
74223;SDS011;62585;49.706;18.216;2024-02-16T06:15:46;9.30;;;4.72;;
74223;SDS011;62585;49.706;18.216;2024-02-16T06:18:12;9.15;;;5.78;;
74223;SDS011;62585;49.706;18.216;2024-02-16T06:20:38;11.40;;;5.88;;
74223;SDS011;62585;49.706;18.216;2024-02-16T06:23:04;9.77;;;6.22;;
74223;SDS011;62585;49.706;18.216;2024-02-16T06:25:30;11.25;;;5.13;;
74223;SDS011;62585;49.706;18.216;2024-02-16T06:27:56;8.40;;;4.85;;
74223;SDS011;62585;49.706;18.216;2024-02-16T06:30:29;9.98;;;5.05;;
74223;SDS011;62585;49.706;18.216;2024-02-16T06:32:54;8.73;;;5.88;;
74223;SDS011;62585;49.706;18.216;2024-02-16T06:35:20;8.63;;;5.07;;
74223;SDS011;62585;49.706;18.216;2024-02-16T06:37:46;7.47;;;5.10;;
74223;SDS011;62585;49.706;18.216;2024-02-16T06:40:12;9.85;;;5.60;;
74223;SDS011;62585;49.706;18.216;2024-02-16T06:42:38;8.82;;;5.40;;
74223;SDS011;62585;49.706;18.216;2024-02-16T06:45:04;10.50;;;5.47;;
74223;SDS011;62585;49.706;18.216;2024-02-16T06:47:31;10.60;;;5.47;;
74223;SDS011;62585;49.706;18.216;2024-02-16T06:49:57;8.35;;;5.05;;
74223;SDS011;62585;49.706;18.216;2024-02-16T06:52:23;10.77;;;5.80;;
74223;SDS011;62585;49.706;18.216;2024-02-16T06:54:49;9.90;;;5.15;;
74223;SDS011;62585;49.706;18.216;2024-02-16T06:57:15;8.70;;;5.65;;
74223;SDS011;62585;49.706;18.216;2024-02-16T06:59:41;8.35;;;5.18;;
74223;SDS011;62585;49.706;18.216;2024-02-16T07:02:07;9.68;;;6.07;;
74223;SDS011;62585;49.706;18.216;2024-02-16T07:04:34;12.02;;;6.22;;
74223;SDS011;62585;49.706;18.216;2024-02-16T07:07:00;14.00;;;5.55;;
74223;SDS011;62585;49.706;18.216;2024-02-16T07:09:26;12.07;;;6.22;;
74223;SDS011;62585;49.706;18.216;2024-02-16T07:11:53;10.77;;;6.07;;
74223;SDS011;62585;49.706;18.216;2024-02-16T07:14:19;11.75;;;6.47;;
74223;SDS011;62585;49.706;18.216;2024-02-16T07:16:44;12.90;;;6.20;;
74223;SDS011;62585;49.706;18.216;2024-02-16T07:19:10;9.68;;;5.55;;
74223;SDS011;62585;49.706;18.216;2024-02-16T07:21:37;11.02;;;6.82;;
74223;SDS011;62585;49.706;18.216;2024-02-16T07:24:03;10.07;;;6.18;;
74223;SDS011;62585;49.706;18.216;2024-02-16T07:26:29;10.63;;;5.88;;
74223;SDS011;62585;49.706;18.216;2024-02-16T07:28:55;8.13;;;5.25;;
74223;SDS011;62585;49.706;18.216;2024-02-16T07:31:21;11.20;;;5.60;;
74223;SDS011;62585;49.706;18.216;2024-02-16T07:33:47;9.05;;;6.53;;
74223;SDS011;62585;49.706;18.216;2024-02-16T07:36:14;11.98;;;6.00;;
74223;SDS011;62585;49.706;18.216;2024-02-16T07:38:40;12.77;;;5.97;;
74223;SDS011;62585;49.706;18.216;2024-02-16T07:41:05;11.05;;;5.60;;
74223;SDS011;62585;49.706;18.216;2024-02-16T07:43:32;10.13;;;5.60;;
74223;SDS011;62585;49.706;18.216;2024-02-16T07:45:58;11.68;;;4.85;;
74223;SDS011;62585;49.706;18.216;2024-02-16T07:48:24;10.45;;;4.70;;
74223;SDS011;62585;49.706;18.216;2024-02-16T07:50:50;8.95;;;4.88;;
74223;SDS011;62585;49.706;18.216;2024-02-16T07:53:16;9.02;;;4.82;;
74223;SDS011;62585;49.706;18.216;2024-02-16T07:55:42;11.25;;;4.97;;
74223;SDS011;62585;49.706;18.216;2024-02-16T07:58:08;7.90;;;4.72;;
74223;SDS011;62585;49.706;18.216;2024-02-16T08:00:34;9.75;;;5.03;;
74223;SDS011;62585;49.706;18.216;2024-02-16T08:03:00;9.00;;;4.25;;
74223;SDS011;62585;49.706;18.216;2024-02-16T08:05:26;7.63;;;4.78;;
74223;SDS011;62585;49.706;18.216;2024-02-16T08:07:56;8.40;;;5.15;;
74223;SDS011;62585;49.706;18.216;2024-02-16T08:10:22;7.35;;;4.70;;
74223;SDS011;62585;49.706;18.216;2024-02-16T08:12:48;8.45;;;5.03;;
74223;SDS011;62585;49.706;18.216;2024-02-16T08:15:14;7.32;;;5.05;;
74223;SDS011;62585;49.706;18.216;2024-02-16T08:17:40;13.05;;;4.97;;
74223;SDS011;62585;49.706;18.216;2024-02-16T08:20:06;11.18;;;4.85;;
74223;SDS011;62585;49.706;18.216;2024-02-16T08:22:33;8.98;;;5.63;;
74223;SDS011;62585;49.706;18.216;2024-02-16T08:24:59;8.73;;;5.07;;
74223;SDS011;62585;49.706;18.216;2024-02-16T08:27:25;8.00;;;5.18;;
74223;SDS011;62585;49.706;18.216;2024-02-16T08:29:51;7.50;;;4.60;;
74223;SDS011;62585;49.706;18.216;2024-02-16T08:32:19;6.03;;;4.13;;
74223;SDS011;62585;49.706;18.216;2024-02-16T08:34:48;9.13;;;5.32;;
74223;SDS011;62585;49.706;18.216;2024-02-16T08:37:15;11.55;;;5.03;;
74223;SDS011;62585;49.706;18.216;2024-02-16T08:39:41;9.13;;;5.32;;
74223;SDS011;62585;49.706;18.216;2024-02-16T08:42:07;7.32;;;5.00;;
74223;SDS011;62585;49.706;18.216;2024-02-16T08:44:42;9.75;;;5.15;;
74223;SDS011;62585;49.706;18.216;2024-02-16T08:47:08;10.10;;;4.93;;
74223;SDS011;62585;49.706;18.216;2024-02-16T08:49:34;11.60;;;5.78;;
74223;SDS011;62585;49.706;18.216;2024-02-16T08:52:00;8.55;;;5.68;;
74223;SDS011;62585;49.706;18.216;2024-02-16T08:54:26;7.63;;;5.10;;
74223;SDS011;62585;49.706;18.216;2024-02-16T08:56:55;8.45;;;5.05;;
74223;SDS011;62585;49.706;18.216;2024-02-16T08:59:21;8.00;;;5.05;;
74223;SDS011;62585;49.706;18.216;2024-02-16T09:01:50;9.48;;;4.63;;
74223;SDS011;62585;49.706;18.216;2024-02-16T09:04:16;8.70;;;4.15;;
74223;SDS011;62585;49.706;18.216;2024-02-16T09:06:42;11.02;;;4.07;;
74223;SDS011;62585;49.706;18.216;2024-02-16T09:09:07;8.75;;;4.38;;
74223;SDS011;62585;49.706;18.216;2024-02-16T09:11:33;7.82;;;4.70;;
74223;SDS011;62585;49.706;18.216;2024-02-16T09:13:59;5.30;;;3.38;;
74223;SDS011;62585;49.706;18.216;2024-02-16T09:16:26;6.05;;;4.22;;
74223;SDS011;62585;49.706;18.216;2024-02-16T09:18:51;6.80;;;3.28;;
74223;SDS011;62585;49.706;18.216;2024-02-16T09:21:17;6.45;;;3.45;;
74223;SDS011;62585;49.706;18.216;2024-02-16T09:23:43;6.97;;;3.58;;
74223;SDS011;62585;49.706;18.216;2024-02-16T09:26:09;9.32;;;5.10;;
74223;SDS011;62585;49.706;18.216;2024-02-16T09:28:38;5.20;;;3.05;;
74223;SDS011;62585;49.706;18.216;2024-02-16T09:31:08;6.00;;;3.35;;
74223;SDS011;62585;49.706;18.216;2024-02-16T09:33:34;5.47;;;3.20;;
74223;SDS011;62585;49.706;18.216;2024-02-16T09:36:01;7.32;;;3.60;;
74223;SDS011;62585;49.706;18.216;2024-02-16T09:38:27;4.80;;;2.40;;
74223;SDS011;62585;49.706;18.216;2024-02-16T09:40:53;4.88;;;2.95;;
74223;SDS011;62585;49.706;18.216;2024-02-16T09:43:25;3.42;;;2.15;;
74223;SDS011;62585;49.706;18.216;2024-02-16T09:45:56;5.80;;;2.60;;
74223;SDS011;62585;49.706;18.216;2024-02-16T09:48:30;3.13;;;2.13;;
74223;SDS011;62585;49.706;18.216;2024-02-16T09:50:57;2.55;;;1.33;;
74223;SDS011;62585;49.706;18.216;2024-02-16T09:53:27;2.90;;;1.75;;
74223;SDS011;62585;49.706;18.216;2024-02-16T09:55:54;3.03;;;1.65;;
74223;SDS011;62585;49.706;18.216;2024-02-16T09:58:20;3.45;;;1.70;;
74223;SDS011;62585;49.706;18.216;2024-02-16T10:00:53;1.60;;;1.20;;
74223;SDS011;62585;49.706;18.216;2024-02-16T10:03:21;5.50;;;1.55;;
74223;SDS011;62585;49.706;18.216;2024-02-16T10:06:04;4.50;;;1.60;;
74223;SDS011;62585;49.706;18.216;2024-02-16T10:08:47;2.00;;;1.10;;
74223;SDS011;62585;49.706;18.216;2024-02-16T10:11:24;3.20;;;1.40;;
74223;SDS011;62585;49.706;18.216;2024-02-16T10:13:56;3.28;;;1.50;;
74223;SDS011;62585;49.706;18.216;2024-02-16T10:16:23;2.33;;;1.40;;
74223;SDS011;62585;49.706;18.216;2024-02-16T10:18:49;3.22;;;2.05;;
74223;SDS011;62585;49.706;18.216;2024-02-16T10:21:25;4.30;;;1.52;;
74223;SDS011;62585;49.706;18.216;2024-02-16T10:23:59;2.38;;;1.70;;
74223;SDS011;62585;49.706;18.216;2024-02-16T10:26:29;5.75;;;2.08;;
74223;SDS011;62585;49.706;18.216;2024-02-16T10:28:55;3.90;;;1.67;;
74223;SDS011;62585;49.706;18.216;2024-02-16T10:31:27;4.32;;;1.90;;
74223;SDS011;62585;49.706;18.216;2024-02-16T10:34:01;2.42;;;1.42;;
74223;SDS011;62585;49.706;18.216;2024-02-16T10:36:37;2.53;;;1.40;;
74223;SDS011;62585;49.706;18.216;2024-02-16T10:39:05;3.15;;;1.60;;
74223;SDS011;62585;49.706;18.216;2024-02-16T10:41:35;2.67;;;1.50;;
74223;SDS011;62585;49.706;18.216;2024-02-16T10:44:03;4.15;;;1.77;;
74223;SDS011;62585;49.706;18.216;2024-02-16T10:48:55;3.55;;;1.83;;
74223;SDS011;62585;49.706;18.216;2024-02-16T10:51:24;4.75;;;2.15;;
74223;SDS011;62585;49.706;18.216;2024-02-16T10:54:04;4.13;;;2.13;;
74223;SDS011;62585;49.706;18.216;2024-02-16T10:56:35;2.42;;;1.35;;
74223;SDS011;62585;49.706;18.216;2024-02-16T10:59:04;4.40;;;1.63;;
74223;SDS011;62585;49.706;18.216;2024-02-16T11:01:41;6.50;;;2.60;;
74223;SDS011;62585;49.706;18.216;2024-02-16T11:04:08;3.03;;;1.65;;
74223;SDS011;62585;49.706;18.216;2024-02-16T11:06:53;3.97;;;1.67;;
74223;SDS011;62585;49.706;18.216;2024-02-16T11:12:17;2.55;;;1.65;;
74223;SDS011;62585;49.706;18.216;2024-02-16T11:14:46;2.67;;;1.60;;
74223;SDS011;62585;49.706;18.216;2024-02-16T11:17:21;3.30;;;1.80;;
74223;SDS011;62585;49.706;18.216;2024-02-16T11:19:48;3.17;;;1.67;;
74223;SDS011;62585;49.706;18.216;2024-02-16T11:22:18;4.05;;;2.00;;
74223;SDS011;62585;49.706;18.216;2024-02-16T11:24:45;2.88;;;1.60;;
74223;SDS011;62585;49.706;18.216;2024-02-16T11:27:13;2.70;;;1.45;;
74223;SDS011;62585;49.706;18.216;2024-02-16T11:29:47;3.08;;;1.50;;
74223;SDS011;62585;49.706;18.216;2024-02-16T11:32:14;1.35;;;1.00;;
74223;SDS011;62585;49.706;18.216;2024-02-16T11:34:40;1.92;;;1.08;;
74223;SDS011;62585;49.706;18.216;2024-02-16T11:37:06;2.38;;;1.27;;
74223;SDS011;62585;49.706;18.216;2024-02-16T11:39:32;4.00;;;1.80;;
74223;SDS011;62585;49.706;18.216;2024-02-16T11:42:06;2.35;;;1.00;;
74223;SDS011;62585;49.706;18.216;2024-02-16T11:44:36;2.83;;;1.40;;
74223;SDS011;62585;49.706;18.216;2024-02-16T11:47:06;2.40;;;1.15;;
74223;SDS011;62585;49.706;18.216;2024-02-16T11:49:40;2.75;;;1.35;;
74223;SDS011;62585;49.706;18.216;2024-02-16T11:52:09;2.72;;;1.58;;
74223;SDS011;62585;49.706;18.216;2024-02-16T11:54:35;2.75;;;1.48;;
74223;SDS011;62585;49.706;18.216;2024-02-16T11:57:03;2.88;;;1.50;;
74223;SDS011;62585;49.706;18.216;2024-02-16T12:01:57;4.32;;;1.40;;
74223;SDS011;62585;49.706;18.216;2024-02-16T12:04:27;2.95;;;1.65;;
74223;SDS011;62585;49.706;18.216;2024-02-16T12:06:55;2.78;;;1.88;;
74223;SDS011;62585;49.706;18.216;2024-02-16T12:09:22;3.40;;;1.80;;
74223;SDS011;62585;49.706;18.216;2024-02-16T12:11:50;2.45;;;1.13;;
74223;SDS011;62585;49.706;18.216;2024-02-16T12:14:18;3.45;;;1.50;;
74223;SDS011;62585;49.706;18.216;2024-02-16T12:16:48;1.70;;;1.23;;
74223;SDS011;62585;49.706;18.216;2024-02-16T12:19:15;2.78;;;1.50;;
74223;SDS011;62585;49.706;18.216;2024-02-16T12:21:42;3.10;;;2.33;;
74223;SDS011;62585;49.706;18.216;2024-02-16T12:24:07;2.22;;;1.50;;
74223;SDS011;62585;49.706;18.216;2024-02-16T12:26:33;3.75;;;1.90;;
74223;SDS011;62585;49.706;18.216;2024-02-16T12:28:59;2.17;;;1.35;;
74223;SDS011;62585;49.706;18.216;2024-02-16T12:31:25;3.05;;;1.67;;
74223;SDS011;62585;49.706;18.216;2024-02-16T12:33:51;1.83;;;1.35;;
74223;SDS011;62585;49.706;18.216;2024-02-16T12:36:17;2.90;;;1.73;;
74223;SDS011;62585;49.706;18.216;2024-02-16T12:38:43;3.40;;;1.90;;
74223;SDS011;62585;49.706;18.216;2024-02-16T12:41:09;2.65;;;1.40;;
74223;SDS011;62585;49.706;18.216;2024-02-16T12:43:35;3.03;;;1.55;;
74223;SDS011;62585;49.706;18.216;2024-02-16T12:46:01;3.15;;;1.70;;
74223;SDS011;62585;49.706;18.216;2024-02-16T12:48:29;3.50;;;2.15;;
74223;SDS011;62585;49.706;18.216;2024-02-16T12:50:55;2.50;;;1.55;;
74223;SDS011;62585;49.706;18.216;2024-02-16T12:53:26;2.65;;;2.13;;
74223;SDS011;62585;49.706;18.216;2024-02-16T12:55:55;4.13;;;2.00;;
74223;SDS011;62585;49.706;18.216;2024-02-16T12:58:21;4.45;;;1.90;;
74223;SDS011;62585;49.706;18.216;2024-02-16T13:00:47;3.65;;;1.60;;
74223;SDS011;62585;49.706;18.216;2024-02-16T13:03:13;3.17;;;1.70;;
74223;SDS011;62585;49.706;18.216;2024-02-16T13:05:39;4.43;;;1.70;;
74223;SDS011;62585;49.706;18.216;2024-02-16T13:08:05;3.97;;;2.22;;
74223;SDS011;62585;49.706;18.216;2024-02-16T13:10:31;3.83;;;1.92;;
74223;SDS011;62585;49.706;18.216;2024-02-16T13:12:57;3.10;;;2.00;;
74223;SDS011;62585;49.706;18.216;2024-02-16T13:15:23;5.28;;;2.30;;
74223;SDS011;62585;49.706;18.216;2024-02-16T13:17:48;3.08;;;1.70;;
74223;SDS011;62585;49.706;18.216;2024-02-16T13:20:14;4.40;;;2.35;;
74223;SDS011;62585;49.706;18.216;2024-02-16T13:22:40;4.00;;;2.10;;
74223;SDS011;62585;49.706;18.216;2024-02-16T13:25:06;3.30;;;2.05;;
74223;SDS011;62585;49.706;18.216;2024-02-16T13:27:33;3.47;;;1.80;;
74223;SDS011;62585;49.706;18.216;2024-02-16T13:30:00;3.63;;;2.13;;
74223;SDS011;62585;49.706;18.216;2024-02-16T13:32:26;3.92;;;2.00;;
74223;SDS011;62585;49.706;18.216;2024-02-16T13:34:52;2.58;;;1.73;;
74223;SDS011;62585;49.706;18.216;2024-02-16T13:37:18;3.47;;;1.95;;
74223;SDS011;62585;49.706;18.216;2024-02-16T13:39:44;3.70;;;1.88;;
74223;SDS011;62585;49.706;18.216;2024-02-16T13:42:13;2.33;;;1.52;;
74223;SDS011;62585;49.706;18.216;2024-02-16T13:44:41;3.17;;;1.77;;
74223;SDS011;62585;49.706;18.216;2024-02-16T13:47:10;2.50;;;1.50;;
74223;SDS011;62585;49.706;18.216;2024-02-16T13:49:36;2.67;;;1.40;;
74223;SDS011;62585;49.706;18.216;2024-02-16T13:52:02;4.65;;;1.80;;
74223;SDS011;62585;49.706;18.216;2024-02-16T13:54:28;3.95;;;1.63;;
74223;SDS011;62585;49.706;18.216;2024-02-16T13:56:54;3.03;;;1.90;;
74223;SDS011;62585;49.706;18.216;2024-02-16T13:59:20;7.57;;;3.58;;
74223;SDS011;62585;49.706;18.216;2024-02-16T14:01:46;2.90;;;2.20;;
74223;SDS011;62585;49.706;18.216;2024-02-16T14:04:14;5.97;;;3.05;;
74223;SDS011;62585;49.706;18.216;2024-02-16T14:06:40;5.95;;;3.13;;
74223;SDS011;62585;49.706;18.216;2024-02-16T14:09:06;3.83;;;2.33;;
74223;SDS011;62585;49.706;18.216;2024-02-16T14:11:35;4.70;;;1.98;;
74223;SDS011;62585;49.706;18.216;2024-02-16T14:14:01;2.60;;;1.80;;
74223;SDS011;62585;49.706;18.216;2024-02-16T14:16:27;3.70;;;1.80;;
74223;SDS011;62585;49.706;18.216;2024-02-16T14:18:53;5.82;;;1.77;;
74223;SDS011;62585;49.706;18.216;2024-02-16T14:21:19;3.63;;;2.65;;
74223;SDS011;62585;49.706;18.216;2024-02-16T14:23:45;4.78;;;2.15;;
74223;SDS011;62585;49.706;18.216;2024-02-16T14:26:11;5.63;;;2.33;;
74223;SDS011;62585;49.706;18.216;2024-02-16T14:28:37;8.95;;;5.55;;
74223;SDS011;62585;49.706;18.216;2024-02-16T14:31:02;3.90;;;1.80;;
74223;SDS011;62585;49.706;18.216;2024-02-16T14:33:29;9.27;;;4.75;;
74223;SDS011;62585;49.706;18.216;2024-02-16T14:35:54;16.98;;;7.63;;
74223;SDS011;62585;49.706;18.216;2024-02-16T14:38:20;4.63;;;2.58;;
74223;SDS011;62585;49.706;18.216;2024-02-16T14:40:46;11.57;;;4.45;;
74223;SDS011;62585;49.706;18.216;2024-02-16T14:43:14;5.15;;;3.05;;
74223;SDS011;62585;49.706;18.216;2024-02-16T14:45:39;5.32;;;2.83;;
74223;SDS011;62585;49.706;18.216;2024-02-16T14:48:05;3.90;;;1.77;;
74223;SDS011;62585;49.706;18.216;2024-02-16T14:50:31;3.42;;;2.10;;